Marshall, Nebraska
Current Conditions -  °F | °C
As of 8:53 PM on Sunday 21 Dec 2014 (Local Time) from KHSI Reporting Station
Overcast Overcast  
Wind Chill: 34°   Ceiling: 600
Heat Index: 41°   Visibility: 8mi
Dew Point: 38°   Wind: 13mph
Humidity: 89%   Direction: 190°S
Pressure: 29.57"   Gusts: NA
Location:  40.4815°N, 97.9942°W
Report Text: KHSI 220253Z AUTO 19011KT 8SM OVC006 05/03 A2957 RMK AO2 SLP025 T00500033 56008
Loading
Personal Weather Stations






























Interactive Weather Map New forecast layout! Learn more

10-Day Weather Forecast

Advertisements
Track Severe Weather on mobile